Terminal Aerodrome Forecast
Issued by NWS

Home | Current Version | Previous Version | Graphics & Text | Print | Product List | Glossary On
Versions: 1 2 3 4 5 6 7 8 9 10 11 12 13 14 15 16 17 18 19 20 21 22 23 24 25 26 27 28 29 30 31 32 33 34
000
FTUS43 KLOT 041724
TAFORD
TAF
KORD 041724Z 0418/0524 30012G20KT P6SM SCT060 BKN250
     FM050000 27006KT P6SM FEW050 BKN250
     FM050300 VRB03KT P6SM BKN250
     FM051500 03006KT P6SM FEW050 BKN250
     FM052000 09009KT P6SM SCT050 BKN200=

USA.gov is the U.S. government's official web portal to all federal, state and local government web resources and services.